createdAt,value
2022-11-24T00:01:16.196Z,82.40
2022-11-24T00:03:51.207Z,82.30
2022-11-24T00:06:18.429Z,82.20
2022-11-24T00:08:54.343Z,82.40
2022-11-24T00:11:40.284Z,82.30
2022-11-24T00:14:07.616Z,82.30
2022-11-24T00:16:43.567Z,82.20
2022-11-24T00:19:19.933Z,82.30
2022-11-24T00:21:47.288Z,82.40
2022-11-24T00:24:21.318Z,82.30
2022-11-24T00:26:55.272Z,82.20
2022-11-24T00:29:29.343Z,81.90
2022-11-24T00:31:57.561Z,82.00
2022-11-24T00:34:31.466Z,82.20
2022-11-24T00:36:59.395Z,82.10
2022-11-24T00:39:33.547Z,82.00
2022-11-24T00:42:00.748Z,81.90
2022-11-24T00:44:34.772Z,81.80
2022-11-24T00:47:17.283Z,81.50
2022-11-24T00:49:44.597Z,81.40
2022-11-24T00:52:18.461Z,81.40
2022-11-24T00:54:52.368Z,81.30
2022-11-24T00:57:26.221Z,81.10
2022-11-24T01:00:00.467Z,81.10
2022-11-24T01:02:27.662Z,81.00
2022-11-24T01:05:01.353Z,80.80
2022-11-24T01:07:28.633Z,80.80
2022-11-24T01:09:55.834Z,80.60
2022-11-24T01:12:29.243Z,80.70
2022-11-24T01:15:03.559Z,80.50
2022-11-24T01:17:37.263Z,80.40
2022-11-24T01:20:05.133Z,80.30
2022-11-24T01:22:39.138Z,80.30
2022-11-24T01:25:07.494Z,80.30
2022-11-24T01:27:41.579Z,80.30
2022-11-24T01:30:09.810Z,80.30
2022-11-24T01:32:58.249Z,80.30
2022-11-24T01:35:32.924Z,80.20
2022-11-24T01:38:06.664Z,80.10
2022-11-24T01:40:33.813Z,80.00
2022-11-24T01:43:07.276Z,80.00
2022-11-24T01:45:55.502Z,79.90
2022-11-24T01:48:35.511Z,80.00
2022-11-24T01:51:18.339Z,80.20
2022-11-24T01:53:59.338Z,80.30
2022-11-24T01:56:28.062Z,80.30
2022-11-24T01:59:06.349Z,80.00
2022-11-24T02:01:34.103Z,79.90
2022-11-24T02:04:11.436Z,80.20
2022-11-24T02:06:41.652Z,80.30
2022-11-24T02:09:33.136Z,80.20
2022-11-24T02:12:01.281Z,80.10
2022-11-24T02:14:35.670Z,80.20
2022-11-24T02:17:03.169Z,80.10
2022-11-24T02:19:44.517Z,80.20
2022-11-24T02:22:59.529Z,80.30
2022-11-24T02:25:54.433Z,80.50
2022-11-24T02:28:24.337Z,80.60
2022-11-24T02:30:58.328Z,80.40
2022-11-24T02:33:28.165Z,80.50
2022-11-24T02:36:02.255Z,80.60
2022-11-24T02:38:35.399Z,80.60
2022-11-24T02:41:21.333Z,80.60
2022-11-24T02:43:58.895Z,80.60
2022-11-24T02:46:39.481Z,80.60
2022-11-24T02:49:13.573Z,80.70
2022-11-24T02:51:47.286Z,80.80
2022-11-24T02:54:14.464Z,80.70
2022-11-24T02:56:48.272Z,80.60
2022-11-24T02:59:22.288Z,80.60
2022-11-24T03:01:56.684Z,80.60
2022-11-24T03:04:30.478Z,80.60
2022-11-24T03:07:05.728Z,80.70
2022-11-24T03:09:39.682Z,80.80
2022-11-24T03:12:14.233Z,80.80
2022-11-24T03:14:48.305Z,80.90
2022-11-24T03:17:23.383Z,81.00
2022-11-24T03:20:02.962Z,81.10
2022-11-24T03:22:31.660Z,81.00
2022-11-24T03:25:06.400Z,81.10
2022-11-24T03:27:40.378Z,81.10
2022-11-24T03:30:15.356Z,81.20
2022-11-24T03:32:49.501Z,81.30
2022-11-24T03:35:16.693Z,81.40
2022-11-24T03:37:50.532Z,81.50
2022-11-24T03:40:25.507Z,81.50
2022-11-24T03:42:52.617Z,81.50
2022-11-24T03:48:29.513Z,81.50
2022-11-24T03:50:59.407Z,81.60
2022-11-24T03:53:36.333Z,81.60
2022-11-24T03:56:04.491Z,81.70
2022-11-24T03:58:38.348Z,81.80
2022-11-24T04:01:06.003Z,81.90
2022-11-24T04:03:39.368Z,81.90
2022-11-24T04:06:06.750Z,82.00
2022-11-24T04:08:40.305Z,82.10
2022-11-24T04:11:07.503Z,82.20
2022-11-24T04:13:41.414Z,82.20
2022-11-24T04:16:09.458Z,82.40
2022-11-24T04:18:36.608Z,82.40
2022-11-24T04:21:10.548Z,82.50
2022-11-24T04:23:37.680Z,82.50
2022-11-24T04:26:12.364Z,82.60
2022-11-24T04:28:39.545Z,82.70
2022-11-24T04:31:14.442Z,82.80
2022-11-24T04:33:41.735Z,82.90
2022-11-24T04:36:15.269Z,82.90
2022-11-24T04:39:25.523Z,83.00
2022-11-24T04:41:36.227Z,83.10
2022-11-24T04:44:10.388Z,83.10
2022-11-24T04:46:51.444Z,83.20
2022-11-24T04:49:19.749Z,83.20
2022-11-24T04:51:54.359Z,83.20
2022-11-24T04:54:21.495Z,83.20
2022-11-24T04:56:59.346Z,83.20
2022-11-24T04:59:26.478Z,83.20
2022-11-24T05:02:00.715Z,83.40
2022-11-24T05:04:28.412Z,83.60
2022-11-24T05:07:02.784Z,83.60
2022-11-24T05:09:55.247Z,83.60
2022-11-24T05:12:24.963Z,83.60
2022-11-24T05:14:59.280Z,83.60
2022-11-24T05:17:33.920Z,83.60
2022-11-24T05:20:08.379Z,83.70
2022-11-24T05:22:42.469Z,83.80
2022-11-24T05:25:09.847Z,83.70
2022-11-24T05:27:43.264Z,83.60
2022-11-24T05:30:11.314Z,83.80
2022-11-24T05:32:38.528Z,83.90
2022-11-24T05:35:13.673Z,83.90
2022-11-24T05:37:40.889Z,83.90
2022-11-24T05:40:18.287Z,83.80
2022-11-24T05:42:52.306Z,84.00
2022-11-24T05:45:40.376Z,84.00
2022-11-24T05:48:10.769Z,84.10
2022-11-24T05:50:44.274Z,83.90
2022-11-24T05:53:21.038Z,84.00
2022-11-24T05:55:48.333Z,84.10
2022-11-24T05:58:22.283Z,83.90
2022-11-24T06:00:49.496Z,84.00
2022-11-24T06:03:23.581Z,84.00
2022-11-24T06:05:57.244Z,84.20
2022-11-24T06:08:28.174Z,84.30
2022-11-24T06:11:24.383Z,84.20
2022-11-24T06:13:51.624Z,84.30
2022-11-24T06:16:25.392Z,84.30
2022-11-24T06:18:52.598Z,84.30
2022-11-24T06:21:26.363Z,84.20
2022-11-24T06:23:53.500Z,84.30
2022-11-24T06:26:27.331Z,84.40
2022-11-24T06:28:54.748Z,84.60
2022-11-24T06:31:28.332Z,84.40
2022-11-24T06:34:03.259Z,84.50
2022-11-24T06:36:37.308Z,84.50
2022-11-24T06:39:12.255Z,84.50
2022-11-24T06:41:39.394Z,84.50
2022-11-24T06:44:13.843Z,84.50
2022-11-24T06:46:54.420Z,84.40
2022-11-24T06:49:28.579Z,84.40
2022-11-24T06:52:02.557Z,84.50
2022-11-24T06:54:33.063Z,84.60
2022-11-24T06:57:07.328Z,84.60
2022-11-24T06:59:41.360Z,84.60
2022-11-24T07:02:10.710Z,84.50
2022-11-24T07:04:44.479Z,84.50
2022-11-24T07:07:11.755Z,84.40
2022-11-24T07:09:45.264Z,84.50
2022-11-24T07:12:12.561Z,84.60
2022-11-24T07:14:46.412Z,84.70
2022-11-24T07:17:13.797Z,84.70
2022-11-24T07:19:47.639Z,84.70
2022-11-24T07:22:21.335Z,84.80
2022-11-24T07:24:55.344Z,84.80
2022-11-24T07:27:29.413Z,84.90
2022-11-24T07:30:03.589Z,84.90
2022-11-24T07:32:30.858Z,84.90
2022-11-24T07:34:58.033Z,84.90
2022-11-24T07:37:32.088Z,84.90
2022-11-24T07:40:06.184Z,85.00
2022-11-24T07:42:33.646Z,84.90
2022-11-24T07:45:07.514Z,85.00
2022-11-24T07:47:55.299Z,85.00
2022-11-24T07:50:29.543Z,84.90
2022-11-24T07:53:00.855Z,85.00
2022-11-24T07:55:34.255Z,85.00
2022-11-24T07:58:02.133Z,84.90
2022-11-24T08:00:36.533Z,84.90
2022-11-24T08:03:03.747Z,85.00
2022-11-24T08:05:49.144Z,84.90
2022-11-24T08:08:25.134Z,84.90
2022-11-24T08:10:59.310Z,85.00
2022-11-24T08:13:33.275Z,85.00
2022-11-24T08:16:03.800Z,85.20
2022-11-24T08:18:37.749Z,85.30
2022-11-24T08:21:06.588Z,85.40
2022-11-24T08:23:41.218Z,85.50
2022-11-24T08:26:12.086Z,85.40
2022-11-24T08:28:46.566Z,85.50
2022-11-24T08:31:16.428Z,85.60
2022-11-24T08:33:50.583Z,85.70
2022-11-24T08:36:20.368Z,85.70
2022-11-24T08:38:56.524Z,85.70
2022-11-24T08:41:24.304Z,85.80
2022-11-24T08:43:52.093Z,85.80
2022-11-24T08:46:26.621Z,85.80
2022-11-24T08:48:55.228Z,85.80
2022-11-24T08:51:34.289Z,85.90
2022-11-24T08:54:02.370Z,85.90
2022-11-24T08:56:38.353Z,86.00
2022-11-24T08:59:06.159Z,86.00
2022-11-24T09:01:40.606Z,86.10
2022-11-24T09:04:07.943Z,86.10
2022-11-24T09:06:41.549Z,86.10
2022-11-24T09:09:17.579Z,86.20
2022-11-24T09:11:51.529Z,86.20
2022-11-24T09:14:18.643Z,86.20
2022-11-24T09:16:52.586Z,86.20
2022-11-24T09:19:19.809Z,86.30
2022-11-24T09:21:53.339Z,86.30
2022-11-24T09:24:20.749Z,86.30
2022-11-24T09:26:54.368Z,86.30
2022-11-24T09:29:21.644Z,86.40
2022-11-24T09:31:55.230Z,86.50
2022-11-24T09:34:22.756Z,86.60
2022-11-24T09:36:58.319Z,86.70
2022-11-24T09:39:33.124Z,86.60
2022-11-24T09:42:14.404Z,86.60
2022-11-24T09:45:41.622Z,86.50
2022-11-24T09:48:30.293Z,86.50
2022-11-24T09:51:03.235Z,86.40
2022-11-24T09:54:04.213Z,86.30
2022-11-24T09:56:45.413Z,86.30
2022-11-24T09:59:24.573Z,86.20
2022-11-24T10:01:59.430Z,86.30
2022-11-24T10:04:38.394Z,86.20
2022-11-24T10:07:35.461Z,86.20
2022-11-24T10:10:24.789Z,86.20
2022-11-24T10:13:17.532Z,86.10
2022-11-24T10:15:53.420Z,86.10
2022-11-24T10:18:44.430Z,86.00
2022-11-24T10:21:26.730Z,86.10
2022-11-24T10:24:19.946Z,86.10
2022-11-24T10:26:57.439Z,86.20
2022-11-24T10:29:43.360Z,86.30
2022-11-24T10:32:29.178Z,86.20
2022-11-24T10:35:09.341Z,86.10
2022-11-24T10:37:51.374Z,86.10
2022-11-24T10:40:49.197Z,86.10
2022-11-24T10:43:21.353Z,86.20
2022-11-24T10:45:55.658Z,86.20
2022-11-24T10:48:44.329Z,86.10
2022-11-24T10:51:34.536Z,86.10
2022-11-24T10:54:31.385Z,86.20
2022-11-24T10:56:58.530Z,86.10
2022-11-24T10:59:36.524Z,86.10
2022-11-24T11:02:46.985Z,86.10
2022-11-24T11:05:41.218Z,86.10
2022-11-24T11:08:20.245Z,86.20
2022-11-24T11:10:56.544Z,86.20
2022-11-24T11:13:31.261Z,86.20
2022-11-24T11:16:06.410Z,86.30
2022-11-24T11:18:41.676Z,86.30
2022-11-24T11:21:24.536Z,86.30
2022-11-24T11:23:58.441Z,86.30
2022-11-24T11:26:25.655Z,86.30
2022-11-24T11:35:23.465Z,86.20
2022-11-24T11:37:51.449Z,86.20
2022-11-24T11:40:32.401Z,86.10
2022-11-24T11:43:27.718Z,86.10
2022-11-24T11:46:18.597Z,86.20
2022-11-24T11:48:54.577Z,86.30
2022-11-24T11:52:03.500Z,86.40
2022-11-24T11:55:10.693Z,86.40
2022-11-24T11:58:03.905Z,86.40
2022-11-24T12:00:44.469Z,86.30
2022-11-24T12:03:47.413Z,86.40
2022-11-24T12:06:44.484Z,86.30
2022-11-24T12:09:56.520Z,86.20
2022-11-24T12:12:47.498Z,86.00
2022-11-24T12:15:40.191Z,86.10
2022-11-24T12:21:34.526Z,86.10
2022-11-24T12:24:17.733Z,86.10
2022-11-24T12:26:56.605Z,86.10
2022-11-24T12:29:47.259Z,86.10
2022-11-24T12:32:30.510Z,86.00
2022-11-24T12:35:13.731Z,86.00
2022-11-24T12:38:11.450Z,86.00
2022-11-24T12:41:39.948Z,86.00
2022-11-24T12:44:07.412Z,86.00
2022-11-24T12:47:06.693Z,85.90
2022-11-24T12:50:12.614Z,85.70
2022-11-24T12:53:00.471Z,85.30
2022-11-24T12:55:32.529Z,85.20
2022-11-24T12:58:11.395Z,85.10
2022-11-24T13:01:10.396Z,85.00
2022-11-24T13:04:36.734Z,85.10
2022-11-24T13:07:12.709Z,85.10
2022-11-24T13:10:53.640Z,85.00
2022-11-24T13:13:15.691Z,84.80
2022-11-24T13:16:34.602Z,86.00
2022-11-24T13:19:02.379Z,85.20
2022-11-24T13:21:54.379Z,84.60
2022-11-24T13:24:34.756Z,84.30
2022-11-24T13:27:22.850Z,84.30
2022-11-24T13:29:52.069Z,84.30
2022-11-24T13:32:25.781Z,84.20
2022-11-24T13:34:55.968Z,84.40
2022-11-24T13:37:34.565Z,84.50
2022-11-24T13:40:12.718Z,84.50
2022-11-24T13:43:02.670Z,84.70
2022-11-24T13:45:42.820Z,84.70
2022-11-24T13:48:28.429Z,84.70
2022-11-24T13:51:09.673Z,84.60
2022-11-24T13:53:49.236Z,84.50
2022-11-24T13:56:23.569Z,84.50
2022-11-24T13:58:57.359Z,84.40
2022-11-24T14:01:32.550Z,84.50
2022-11-24T14:04:43.367Z,84.50
2022-11-24T14:07:15.073Z,84.50
2022-11-24T14:09:59.420Z,84.50
2022-11-24T14:12:38.507Z,84.50
2022-11-24T14:15:29.002Z,84.50
2022-11-24T14:18:02.423Z,84.50
2022-11-24T14:20:30.492Z,84.50
2022-11-24T14:23:04.350Z,84.60
2022-11-24T14:25:32.629Z,84.70
2022-11-24T14:28:20.766Z,84.80
2022-11-24T14:30:54.879Z,84.90
2022-11-24T14:33:22.461Z,84.90
2022-11-24T14:35:58.610Z,85.00
2022-11-24T14:38:35.394Z,85.00
2022-11-24T14:41:26.233Z,85.10
2022-11-24T14:44:23.338Z,85.10
2022-11-24T14:47:43.758Z,85.10
2022-11-24T14:50:23.485Z,85.30
2022-11-24T14:53:05.698Z,85.30
2022-11-24T14:55:39.372Z,85.30
2022-11-24T14:58:36.512Z,85.30
2022-11-24T15:01:21.378Z,85.30
2022-11-24T15:07:27.707Z,85.20
2022-11-24T15:10:11.749Z,85.30
2022-11-24T15:12:48.568Z,85.40
2022-11-24T15:15:15.912Z,85.50
2022-11-24T15:17:58.489Z,85.60
2022-11-24T15:20:44.629Z,85.60
2022-11-24T15:23:25.955Z,85.70
2022-11-24T15:26:01.356Z,85.70
2022-11-24T15:28:39.624Z,85.80
2022-11-24T15:31:11.696Z,85.80
2022-11-24T15:33:46.609Z,85.80
2022-11-24T15:36:15.795Z,85.80
2022-11-24T15:38:49.701Z,85.80
2022-11-24T15:41:27.265Z,85.80
2022-11-24T15:43:59.698Z,85.70
2022-11-24T15:46:44.701Z,85.80
2022-11-24T15:49:25.411Z,85.80
2022-11-24T15:51:52.924Z,85.90
2022-11-24T15:54:26.265Z,85.90
2022-11-24T15:56:53.713Z,86.00
2022-11-24T15:59:27.410Z,86.00
2022-11-24T16:01:54.550Z,86.00
2022-11-24T16:04:21.729Z,86.10
2022-11-24T16:06:55.363Z,86.20
2022-11-24T16:09:22.584Z,86.10
2022-11-24T16:11:57.374Z,86.10
2022-11-24T16:14:32.549Z,86.10
2022-11-24T16:16:59.815Z,86.30
2022-11-24T16:19:36.186Z,86.20
2022-11-24T16:22:08.545Z,86.30
2022-11-24T16:24:42.475Z,86.20
2022-11-24T16:27:16.467Z,86.10
2022-11-24T16:29:50.505Z,86.20
2022-11-24T16:32:18.049Z,86.20
2022-11-24T16:34:45.169Z,86.20
2022-11-24T16:37:19.500Z,86.20
2022-11-24T16:39:50.044Z,86.20
2022-11-24T16:42:18.649Z,86.20
2022-11-24T16:44:52.620Z,86.10
2022-11-24T16:47:26.471Z,86.10
2022-11-24T16:50:06.594Z,86.20
2022-11-24T16:52:33.835Z,86.20
2022-11-24T16:55:08.838Z,86.20
2022-11-24T16:57:37.260Z,86.10
2022-11-24T17:00:12.389Z,86.10
2022-11-24T17:02:39.773Z,86.10
2022-11-24T17:05:07.540Z,86.00
2022-11-24T17:07:41.937Z,85.90
2022-11-24T17:10:09.599Z,86.00
2022-11-24T17:12:44.520Z,86.10
2022-11-24T17:15:33.572Z,86.00
2022-11-24T17:18:23.568Z,86.00
2022-11-24T17:20:56.472Z,86.10
2022-11-24T17:23:30.449Z,86.20
2022-11-24T17:26:15.387Z,86.20
2022-11-24T17:28:43.510Z,86.10
2022-11-24T17:31:46.509Z,85.90
2022-11-24T17:34:14.191Z,85.90
2022-11-24T17:36:48.772Z,85.80
2022-11-24T17:39:24.966Z,85.90
2022-11-24T17:41:59.740Z,85.90
2022-11-24T17:44:33.789Z,85.80
2022-11-24T17:47:22.550Z,85.70
2022-11-24T17:49:49.913Z,85.80
2022-11-24T17:52:25.423Z,85.70
2022-11-24T17:54:52.597Z,85.60
2022-11-24T17:57:26.910Z,85.60
2022-11-24T17:59:54.287Z,85.60
2022-11-24T18:02:21.858Z,85.60
2022-11-24T18:04:55.754Z,85.60
2022-11-24T18:07:29.725Z,85.60
2022-11-24T18:09:57.188Z,85.50
2022-11-24T18:12:31.520Z,85.50
2022-11-24T18:14:59.063Z,85.50
2022-11-24T18:17:33.494Z,85.40
2022-11-24T18:20:00.669Z,85.30
2022-11-24T18:22:57.916Z,85.20
2022-11-24T18:25:22.322Z,85.20
2022-11-24T18:27:49.763Z,85.00
2022-11-24T18:30:24.747Z,84.90
2022-11-24T18:32:52.553Z,85.00
2022-11-24T18:35:19.698Z,84.90
2022-11-24T18:37:53.497Z,84.90
2022-11-24T18:40:29.086Z,84.90
2022-11-24T18:43:00.402Z,84.90
2022-11-24T18:45:28.472Z,84.90
2022-11-24T18:48:02.651Z,84.70
2022-11-24T18:50:36.306Z,84.70
2022-11-24T18:53:10.585Z,84.60
2022-11-24T18:55:44.605Z,84.50
2022-11-24T18:58:19.635Z,84.50
2022-11-24T19:00:47.089Z,84.50
2022-11-24T19:03:21.486Z,84.50
2022-11-24T19:05:49.005Z,84.50
2022-11-24T19:08:22.666Z,84.30
2022-11-24T19:10:50.336Z,84.30
2022-11-24T19:13:24.497Z,84.30
2022-11-24T19:15:52.575Z,84.30
2022-11-24T19:18:27.581Z,84.40
2022-11-24T19:20:58.346Z,84.30
2022-11-24T19:23:32.494Z,84.30
2022-11-24T19:26:04.935Z,84.20
2022-11-24T19:28:39.535Z,84.20
2022-11-24T19:31:16.520Z,84.20
2022-11-24T19:33:44.897Z,84.10
2022-11-24T19:36:21.444Z,84.10
2022-11-24T19:38:54.266Z,84.00
2022-11-24T19:41:30.530Z,84.00
2022-11-24T19:43:59.715Z,84.00
2022-11-24T19:46:36.412Z,83.90
2022-11-24T19:49:10.674Z,83.80
2022-11-24T19:51:54.036Z,83.70
2022-11-24T19:54:30.735Z,83.60
2022-11-24T19:56:58.276Z,83.60
2022-11-24T19:59:33.406Z,83.60
2022-11-24T20:02:03.519Z,83.60
2022-11-24T20:04:39.757Z,83.50
2022-11-24T20:07:07.228Z,83.40
2022-11-24T20:09:41.538Z,83.40
2022-11-24T20:12:16.547Z,83.30
2022-11-24T20:14:43.799Z,83.30
2022-11-24T20:17:19.483Z,83.30
2022-11-24T20:19:46.859Z,83.20
2022-11-24T20:22:20.522Z,83.20
2022-11-24T20:24:48.461Z,83.10
2022-11-24T20:27:23.040Z,83.00
2022-11-24T20:29:50.540Z,83.10
2022-11-24T20:32:27.540Z,83.20
2022-11-24T20:34:54.779Z,82.90
2022-11-24T20:37:30.650Z,82.80
2022-11-24T20:40:02.810Z,82.80
2022-11-24T20:42:39.705Z,82.80
2022-11-24T20:45:07.445Z,82.90
2022-11-24T20:47:42.990Z,83.10
2022-11-24T20:50:23.395Z,83.00
2022-11-24T20:52:50.670Z,82.90
2022-11-24T20:55:24.404Z,82.90
2022-11-24T20:57:52.250Z,82.90
2022-11-24T21:00:26.520Z,83.00
2022-11-24T21:02:56.926Z,82.90
2022-11-24T21:05:31.690Z,82.80
2022-11-24T21:07:59.101Z,82.70
2022-11-24T21:10:33.640Z,82.60
2022-11-24T21:13:01.262Z,82.60
2022-11-24T21:15:36.584Z,82.50
2022-11-24T21:18:04.341Z,82.50
2022-11-24T21:20:42.369Z,82.40
2022-11-24T21:23:10.421Z,82.20
2022-11-24T21:25:44.510Z,82.20
2022-11-24T21:28:13.484Z,82.00
2022-11-24T21:30:47.705Z,82.00
2022-11-24T21:33:15.367Z,82.00
2022-11-24T21:35:49.565Z,82.00
2022-11-24T21:38:17.357Z,82.20
2022-11-24T21:40:51.728Z,82.20
2022-11-24T21:43:28.963Z,82.30
2022-11-24T21:46:03.850Z,82.40
2022-11-24T21:48:46.282Z,82.50
2022-11-24T21:51:29.566Z,82.70
2022-11-24T21:53:57.950Z,82.60
2022-11-24T21:56:25.400Z,82.50
2022-11-24T21:59:04.572Z,82.60
2022-11-24T22:01:38.574Z,82.50
2022-11-24T22:04:12.434Z,82.50
2022-11-24T22:06:46.824Z,82.40
2022-11-24T22:09:20.596Z,82.50
2022-11-24T22:11:59.438Z,82.30
2022-11-24T22:14:37.550Z,82.50
2022-11-24T22:17:14.472Z,82.40
2022-11-24T22:19:42.042Z,82.60
2022-11-24T22:22:15.477Z,82.60
2022-11-24T22:24:42.796Z,82.40
2022-11-24T22:27:16.669Z,82.50
2022-11-24T22:29:54.158Z,82.50
2022-11-24T22:32:21.715Z,82.60
2022-11-24T22:34:55.398Z,82.60
2022-11-24T22:37:29.446Z,82.50
2022-11-24T22:40:03.540Z,82.70
2022-11-24T22:42:30.803Z,82.90
2022-11-24T22:44:58.656Z,82.80
2022-11-24T22:47:32.454Z,82.80
2022-11-24T22:50:07.383Z,82.80
2022-11-24T22:52:41.970Z,82.80
2022-11-24T22:55:10.057Z,82.90
2022-11-24T22:57:38.533Z,82.80
2022-11-24T23:00:15.474Z,82.80
2022-11-24T23:02:42.726Z,82.80
2022-11-24T23:05:20.973Z,82.70
2022-11-24T23:07:54.673Z,82.70
2022-11-24T23:10:21.885Z,82.70
2022-11-24T23:12:56.602Z,82.80
2022-11-24T23:15:24.042Z,82.60
2022-11-24T23:17:57.434Z,82.60
2022-11-24T23:20:31.779Z,82.40
2022-11-24T23:22:59.613Z,82.30
2022-11-24T23:25:33.482Z,82.40
2022-11-24T23:28:00.887Z,82.60
2022-11-24T23:30:34.528Z,82.50
2022-11-24T23:33:01.736Z,82.60
2022-11-24T23:35:29.506Z,82.60
2022-11-24T23:38:07.703Z,82.60
2022-11-24T23:40:35.525Z,82.40
2022-11-24T23:43:02.646Z,82.70
2022-11-24T23:45:39.642Z,82.90
2022-11-24T23:48:13.689Z,82.80
2022-11-24T23:50:53.472Z,82.90
2022-11-24T23:53:20.938Z,82.70
2022-11-24T23:56:01.483Z,82.30
2022-11-24T23:58:29.653Z,82.20
